KERI/ERI METAR and TAF weather

Enter ICAO airport designator
Station Type Date Time Source
KERI METAR 2019/08/25 05:51 UTC NOAA

KERI 250551Z AUTO 16004KT 10SM CLR 15/11 A3026 RMK AO2 SLP245 T01500111 10200 20150 58003


Station Type Date Time Source
KERI Decoded METAR 2019/08/25 05:51 UTC NOAA

Station name not available
Aug 25, 2019 - 01:51 AM EDT / 2019.08.25 0551 UTC
Wind: from the SSE (160 degrees) at 5 MPH (4 KT):0
Visibility: 10 mile(s):0
Sky conditions: clear
Temperature: 59.0 F (15.0 C)
Dew Point: 52.0 F (11.1 C)
Relative Humidity: 77%
Pressure (altimeter): 30.26 in. Hg (1024 hPa)
Pressure tendency: 0.01 inches (0.3 hPa) lower than three hours ago
ob: KERI 250551Z AUTO 16004KT 10SM CLR 15/11 A3026 RMK AO2 SLP245 T01500111 10200 20150 58003
cycle: 6

Station Type Date Time Source
KERI TAF 2019/08/25 06:24 UTC NOAA

TAF KERI 250521Z 2506/2606 13007KT P6SM SKC
FM251700 05010G18KT P6SM SKC
FM260200 14012KT P6SM SKC

Example: see airport list